createdAt,value
2023-08-14T00:00:46.453Z,3.40
2023-08-14T00:03:34.433Z,4.00
2023-08-14T00:06:02.798Z,3.20
2023-08-14T00:08:31.146Z,3.20
2023-08-14T00:10:59.735Z,2.90
2023-08-14T00:13:28.533Z,3.20
2023-08-14T00:15:56.851Z,3.10
2023-08-14T00:18:25.789Z,3.20
2023-08-14T00:20:54.008Z,3.80
2023-08-14T00:23:22.274Z,3.20
2023-08-14T00:25:50.384Z,3.10
2023-08-14T00:28:18.939Z,3.50
2023-08-14T00:30:47.172Z,3.40
2023-08-14T00:33:15.714Z,3.40
2023-08-14T00:35:44.194Z,3.10
2023-08-14T00:38:12.374Z,3.90
2023-08-14T00:40:40.537Z,3.50
2023-08-14T00:43:09.050Z,3.20
2023-08-14T00:45:46.473Z,3.20
2023-08-14T00:48:16.356Z,2.90
2023-08-14T00:50:46.164Z,3.40
2023-08-14T00:53:15.903Z,4.00
2023-08-14T00:55:44.578Z,3.30
2023-08-14T00:58:14.213Z,2.80
2023-08-14T01:00:44.439Z,2.90
2023-08-14T01:03:13.888Z,3.70
2023-08-14T01:05:42.420Z,3.20
2023-08-14T01:08:11.223Z,3.30
2023-08-14T01:11:00.139Z,3.20
2023-08-14T01:13:50.342Z,2.80
2023-08-14T01:16:24.694Z,3.20
2023-08-14T01:18:56.547Z,3.70
2023-08-14T01:21:34.235Z,3.60
2023-08-14T01:24:25.547Z,2.60
2023-08-14T01:26:54.230Z,2.80
2023-08-14T01:29:22.749Z,3.00
2023-08-14T01:31:51.198Z,3.20
2023-08-14T01:34:19.377Z,3.00
2023-08-14T01:37:14.264Z,3.30
2023-08-14T01:39:50.835Z,3.10
2023-08-14T01:42:26.817Z,3.00
2023-08-14T01:45:03.160Z,3.10
2023-08-14T01:47:34.596Z,2.90
2023-08-14T01:50:03.627Z,3.00
2023-08-14T01:52:34.038Z,3.50
2023-08-14T01:55:02.445Z,3.00
2023-08-14T01:57:32.444Z,2.90
2023-08-14T02:00:00.931Z,3.70
2023-08-14T02:02:29.523Z,3.30
2023-08-14T02:04:58.111Z,3.10
2023-08-14T02:07:26.397Z,3.40
2023-08-14T02:09:57.640Z,2.90
2023-08-14T02:12:27.262Z,3.00
2023-08-14T02:14:55.512Z,3.40
2023-08-14T02:17:24.230Z,3.60
2023-08-14T02:19:52.821Z,3.00
2023-08-14T02:22:22.036Z,3.20
2023-08-14T02:24:51.051Z,3.20
2023-08-14T02:27:19.177Z,3.30
2023-08-14T02:29:47.585Z,3.40
2023-08-14T02:32:16.766Z,3.20
2023-08-14T02:34:54.369Z,3.20
2023-08-14T02:37:23.290Z,3.70
2023-08-14T02:39:51.858Z,3.60
2023-08-14T02:42:22.164Z,3.50
2023-08-14T02:44:52.207Z,3.60
2023-08-14T02:47:21.142Z,3.30
2023-08-14T02:49:49.914Z,3.00
2023-08-14T02:52:18.676Z,3.20
2023-08-14T02:54:47.006Z,3.40
2023-08-14T02:57:15.375Z,3.50
2023-08-14T02:59:44.060Z,3.20
2023-08-14T03:02:12.296Z,2.70
2023-08-14T03:04:40.638Z,2.80
2023-08-14T03:07:08.811Z,5.70
2023-08-14T03:09:37.115Z,3.50
2023-08-14T03:12:06.035Z,3.90
2023-08-14T03:14:34.615Z,3.10
2023-08-14T03:17:02.994Z,3.80
2023-08-14T03:19:31.311Z,3.40
2023-08-14T03:21:59.946Z,3.50
2023-08-14T03:24:28.415Z,3.80
2023-08-14T03:26:56.928Z,3.30
2023-08-14T03:29:26.029Z,3.30
2023-08-14T03:31:55.011Z,3.30
2023-08-14T03:34:23.268Z,3.70
2023-08-14T03:36:51.596Z,3.20
2023-08-14T03:39:21.296Z,3.40
2023-08-14T03:41:49.557Z,3.30
2023-08-14T03:44:18.089Z,4.50
2023-08-14T03:46:46.540Z,3.30
2023-08-14T03:49:16.845Z,3.40
2023-08-14T03:51:45.874Z,3.00
2023-08-14T03:54:14.660Z,3.70
2023-08-14T03:56:43.453Z,2.90
2023-08-14T03:59:13.476Z,2.80
2023-08-14T04:01:44.419Z,3.10
2023-08-14T04:04:13.005Z,3.40
2023-08-14T04:06:41.868Z,4.10
2023-08-14T04:09:10.708Z,3.50
2023-08-14T04:11:39.241Z,4.20
2023-08-14T04:14:07.610Z,3.40
2023-08-14T04:16:45.516Z,3.60
2023-08-14T04:19:16.464Z,5.30
2023-08-14T04:21:45.151Z,3.90
2023-08-14T04:24:13.904Z,4.00
2023-08-14T04:26:42.427Z,4.00
2023-08-14T04:29:11.568Z,3.20
2023-08-14T04:31:41.782Z,4.20
2023-08-14T04:34:11.825Z,4.80
2023-08-14T04:36:42.590Z,4.60
2023-08-14T04:39:11.072Z,3.70
2023-08-14T04:41:40.066Z,4.80
2023-08-14T04:44:08.176Z,4.70
2023-08-14T04:49:10.128Z,5.20
2023-08-14T04:51:38.821Z,5.80
2023-08-14T04:54:07.548Z,5.70
2023-08-14T04:56:36.307Z,5.60
2023-08-14T04:59:05.351Z,5.60
2023-08-14T05:01:34.244Z,11.00
2023-08-14T05:04:02.691Z,6.20
2023-08-14T05:06:30.965Z,8.10
2023-08-14T05:09:02.173Z,6.20
2023-08-14T05:11:33.264Z,6.50
2023-08-14T05:14:01.545Z,6.20
2023-08-14T05:16:29.925Z,5.80
2023-08-14T05:19:00.078Z,5.90
2023-08-14T05:21:28.567Z,6.60
2023-08-14T05:23:56.630Z,5.10
2023-08-14T05:26:24.762Z,5.50
2023-08-14T05:28:53.161Z,5.40
2023-08-14T05:31:21.698Z,4.80
2023-08-14T05:33:50.261Z,5.10
2023-08-14T05:36:18.580Z,4.60
2023-08-14T05:38:46.934Z,4.70
2023-08-14T05:41:15.112Z,5.20
2023-08-14T05:43:43.709Z,5.10
2023-08-14T05:46:12.021Z,4.80
2023-08-14T05:48:40.570Z,5.30
2023-08-14T05:51:09.463Z,4.70
2023-08-14T05:53:37.767Z,5.20
2023-08-14T05:56:06.124Z,4.70
2023-08-14T05:58:34.298Z,5.10
2023-08-14T06:01:02.513Z,5.80
2023-08-14T06:03:43.558Z,4.80
2023-08-14T06:06:13.185Z,5.20
2023-08-14T06:08:41.870Z,5.00
2023-08-14T06:11:10.465Z,4.50
2023-08-14T06:13:38.892Z,4.50
2023-08-14T06:16:07.491Z,4.00
2023-08-14T06:18:35.921Z,4.10
2023-08-14T06:21:04.364Z,3.40
2023-08-14T06:23:32.963Z,4.50
2023-08-14T06:26:01.827Z,4.00
2023-08-14T06:28:30.277Z,3.70
2023-08-14T06:31:05.111Z,5.50
2023-08-14T06:33:33.519Z,3.90
2023-08-14T06:36:02.087Z,4.20
2023-08-14T06:38:30.307Z,4.60
2023-08-14T06:40:58.649Z,4.60
2023-08-14T06:43:26.716Z,4.00
2023-08-14T06:45:55.008Z,3.80
2023-08-14T06:48:23.294Z,3.70
2023-08-14T06:50:53.699Z,3.90
2023-08-14T06:53:22.107Z,3.50
2023-08-14T06:55:50.314Z,5.10
2023-08-14T06:58:18.778Z,5.70
2023-08-14T07:00:49.752Z,3.30
2023-08-14T07:03:18.163Z,3.60
2023-08-14T07:05:46.586Z,3.70
2023-08-14T07:08:15.179Z,3.20
2023-08-14T07:10:43.766Z,3.40
2023-08-14T07:13:12.456Z,3.80
2023-08-14T07:15:41.704Z,4.60
2023-08-14T07:18:10.422Z,3.50
2023-08-14T07:20:38.959Z,3.80
2023-08-14T07:23:07.644Z,3.40
2023-08-14T07:25:36.151Z,3.60
2023-08-14T07:28:05.115Z,3.60
2023-08-14T07:30:33.944Z,3.40
2023-08-14T07:33:02.891Z,4.30
2023-08-14T07:35:31.297Z,3.80
2023-08-14T07:37:59.697Z,3.20
2023-08-14T07:40:28.063Z,3.80
2023-08-14T07:42:56.549Z,2.90
2023-08-14T07:45:24.745Z,2.90
2023-08-14T07:47:53.364Z,3.80
2023-08-14T07:50:22.269Z,3.00
2023-08-14T07:52:50.602Z,3.30
2023-08-14T07:55:18.976Z,3.90
2023-08-14T07:57:47.396Z,3.50
2023-08-14T08:00:17.248Z,3.60
2023-08-14T08:02:45.474Z,3.20
2023-08-14T08:05:14.766Z,3.60
2023-08-14T08:07:43.159Z,2.90
2023-08-14T08:10:11.740Z,3.30
2023-08-14T08:12:40.086Z,3.30
2023-08-14T08:15:08.928Z,3.10
2023-08-14T08:17:37.324Z,3.30
2023-08-14T08:20:07.206Z,3.50
2023-08-14T08:22:35.509Z,3.10
2023-08-14T08:25:04.672Z,2.90
2023-08-14T08:27:33.230Z,3.20
2023-08-14T08:30:01.902Z,2.70
2023-08-14T08:32:31.216Z,2.40
2023-08-14T08:34:59.510Z,2.40
2023-08-14T08:37:27.654Z,2.20
2023-08-14T08:39:55.713Z,2.20
2023-08-14T08:42:24.229Z,2.10
2023-08-14T08:44:54.550Z,2.50
2023-08-14T08:47:27.842Z,2.70
2023-08-14T08:52:25.984Z,1.80
2023-08-14T08:54:55.655Z,2.00
2023-08-14T08:57:24.068Z,2.90
2023-08-14T08:59:53.679Z,2.20
2023-08-14T09:02:22.461Z,2.00
2023-08-14T09:04:51.087Z,2.80
2023-08-14T09:07:20.194Z,2.40
2023-08-14T09:09:48.871Z,2.10
2023-08-14T09:12:17.376Z,2.10
2023-08-14T09:15:00.377Z,2.70
2023-08-14T09:17:28.675Z,2.00
2023-08-14T09:19:57.007Z,1.80
2023-08-14T09:22:29.033Z,1.80
2023-08-14T09:24:58.572Z,2.50
2023-08-14T09:27:28.092Z,2.00
2023-08-14T09:29:56.576Z,2.40
2023-08-14T09:32:25.931Z,2.30
2023-08-14T09:35:02.130Z,2.00
2023-08-14T09:37:30.854Z,2.00
2023-08-14T09:40:16.869Z,2.10
2023-08-14T09:42:47.472Z,1.70
2023-08-14T09:45:18.781Z,1.90
2023-08-14T09:47:51.208Z,1.60
2023-08-14T09:50:22.650Z,1.70
2023-08-14T09:52:50.758Z,1.80
2023-08-14T09:55:19.081Z,2.10
2023-08-14T09:57:48.920Z,1.60
2023-08-14T10:00:17.887Z,1.80
2023-08-14T10:02:49.004Z,1.80
2023-08-14T10:05:19.409Z,1.60
2023-08-14T10:07:50.673Z,1.80
2023-08-14T10:10:20.754Z,1.80
2023-08-14T10:12:59.635Z,1.90
2023-08-14T10:15:41.080Z,1.70
2023-08-14T10:18:16.692Z,1.60
2023-08-14T10:20:49.316Z,1.60
2023-08-14T10:23:18.403Z,1.40
2023-08-14T10:25:51.967Z,1.80
2023-08-14T10:28:21.114Z,2.10
2023-08-14T10:30:49.775Z,1.80
2023-08-14T10:33:20.689Z,1.50
2023-08-14T10:35:51.204Z,1.30
2023-08-14T10:38:25.179Z,2.00
2023-08-14T10:41:05.447Z,1.60
2023-08-14T10:43:34.257Z,1.30
2023-08-14T10:46:15.080Z,1.40
2023-08-14T10:48:45.343Z,2.20
2023-08-14T10:51:18.017Z,1.70
2023-08-14T10:53:46.924Z,2.30
2023-08-14T10:56:15.274Z,1.80
2023-08-14T10:58:51.677Z,1.90
2023-08-14T11:01:20.058Z,1.60
2023-08-14T11:04:06.718Z,1.90
2023-08-14T11:07:00.218Z,2.10
2023-08-14T11:09:32.790Z,1.60
2023-08-14T11:12:10.096Z,1.70
2023-08-14T11:14:43.158Z,1.90
2023-08-14T11:17:11.695Z,1.50
2023-08-14T11:19:40.196Z,2.10
2023-08-14T11:22:08.694Z,2.50
2023-08-14T11:24:39.781Z,1.70
2023-08-14T11:27:08.634Z,1.40
2023-08-14T11:29:45.008Z,1.20
2023-08-14T11:32:22.906Z,1.20
2023-08-14T11:34:52.771Z,1.10
2023-08-14T11:37:21.310Z,1.20
2023-08-14T11:39:50.661Z,1.20
2023-08-14T11:42:19.408Z,1.10
2023-08-14T11:44:48.178Z,1.10
2023-08-14T11:47:16.591Z,1.80
2023-08-14T11:49:45.528Z,1.30
2023-08-14T11:52:14.217Z,1.00
2023-08-14T11:54:46.119Z,1.10
2023-08-14T11:57:15.183Z,0.90
2023-08-14T11:59:46.438Z,1.40
2023-08-14T12:02:14.729Z,1.10
2023-08-14T12:04:42.952Z,0.90
2023-08-14T12:07:12.089Z,1.30
2023-08-14T12:09:40.685Z,1.10
2023-08-14T12:12:09.206Z,1.00
2023-08-14T12:14:42.441Z,1.20
2023-08-14T12:17:17.206Z,1.10
2023-08-14T12:19:54.241Z,1.20
2023-08-14T12:22:24.250Z,1.00
2023-08-14T12:24:54.131Z,1.00
2023-08-14T12:27:22.783Z,1.20
2023-08-14T12:29:52.995Z,1.20
2023-08-14T12:32:23.455Z,0.90
2023-08-14T12:34:52.998Z,0.90
2023-08-14T12:37:21.960Z,0.80
2023-08-14T12:39:55.830Z,1.20
2023-08-14T12:42:24.518Z,1.20
2023-08-14T12:44:53.845Z,1.00
2023-08-14T12:47:22.887Z,1.00
2023-08-14T12:49:52.211Z,1.10
2023-08-14T12:52:20.782Z,1.00
2023-08-14T12:54:48.961Z,1.80
2023-08-14T12:57:17.128Z,1.00
2023-08-14T12:59:50.854Z,1.00
2023-08-14T13:02:24.646Z,1.10
2023-08-14T13:04:57.887Z,0.90
2023-08-14T13:07:30.841Z,1.20
2023-08-14T13:09:59.325Z,1.10
2023-08-14T13:12:27.603Z,1.10
2023-08-14T13:14:55.809Z,1.20
2023-08-14T13:17:24.306Z,0.90
2023-08-14T13:19:54.055Z,0.70
2023-08-14T13:22:23.099Z,1.00
2023-08-14T13:27:24.767Z,1.20
2023-08-14T13:29:53.074Z,0.80
2023-08-14T13:32:22.204Z,0.90
2023-08-14T13:34:50.537Z,0.90
2023-08-14T13:37:19.238Z,0.80
2023-08-14T13:39:48.428Z,1.00
2023-08-14T13:42:17.454Z,1.20
2023-08-14T13:44:45.917Z,1.00
2023-08-14T13:47:16.408Z,0.80
2023-08-14T13:49:46.785Z,0.80
2023-08-14T13:52:15.364Z,1.30
2023-08-14T13:54:44.561Z,1.30
2023-08-14T13:57:12.708Z,1.10
2023-08-14T13:59:42.306Z,0.70
2023-08-14T14:02:12.159Z,0.80
2023-08-14T14:04:40.804Z,0.60
2023-08-14T14:07:09.093Z,0.90
2023-08-14T14:09:39.862Z,1.00
2023-08-14T14:12:09.918Z,1.30
2023-08-14T14:14:38.110Z,0.70
2023-08-14T14:17:06.490Z,1.10
2023-08-14T14:19:34.902Z,0.70
2023-08-14T14:22:04.415Z,1.50
2023-08-14T14:24:33.270Z,0.90
2023-08-14T14:27:02.082Z,1.20
2023-08-14T14:29:32.226Z,0.80
2023-08-14T14:32:00.392Z,1.10
2023-08-14T14:34:30.099Z,1.10
2023-08-14T14:36:58.640Z,0.80
2023-08-14T14:39:26.945Z,0.90
2023-08-14T14:41:55.004Z,1.00
2023-08-14T14:44:23.286Z,1.20
2023-08-14T14:46:51.506Z,1.10
2023-08-14T14:49:20.523Z,1.20
2023-08-14T14:51:50.185Z,0.80
2023-08-14T14:54:18.631Z,0.90
2023-08-14T14:56:46.948Z,0.90
2023-08-14T14:59:15.384Z,1.40
2023-08-14T15:01:43.554Z,1.20
2023-08-14T15:04:13.786Z,1.00
2023-08-14T15:06:42.998Z,1.00
2023-08-14T15:09:11.286Z,0.90
2023-08-14T15:11:39.610Z,1.00
2023-08-14T15:14:08.081Z,1.20
2023-08-14T15:16:36.088Z,1.20
2023-08-14T15:19:04.362Z,1.20
2023-08-14T15:21:32.388Z,1.00
2023-08-14T15:24:00.511Z,1.60
2023-08-14T15:26:28.620Z,1.10
2023-08-14T15:28:56.713Z,1.50
2023-08-14T15:31:24.837Z,1.40
2023-08-14T15:33:53.203Z,1.00
2023-08-14T15:36:22.557Z,1.00
2023-08-14T15:38:50.783Z,1.90
2023-08-14T15:41:18.924Z,1.10
2023-08-14T15:43:46.961Z,1.10
2023-08-14T15:46:15.018Z,1.20
2023-08-14T15:48:43.957Z,1.20
2023-08-14T15:51:12.654Z,1.40
2023-08-14T15:53:41.067Z,1.30
2023-08-14T15:56:09.577Z,1.30
2023-08-14T15:58:37.929Z,1.10
2023-08-14T16:01:06.306Z,1.70
2023-08-14T16:03:36.983Z,1.60
2023-08-14T16:06:06.466Z,1.60
2023-08-14T16:08:35.700Z,1.80
2023-08-14T16:11:03.827Z,2.10
2023-08-14T16:13:33.745Z,2.10
2023-08-14T16:16:02.291Z,1.90
2023-08-14T16:18:30.413Z,1.60
2023-08-14T16:21:00.372Z,1.60
2023-08-14T16:23:29.280Z,1.50
2023-08-14T16:25:57.504Z,1.60
2023-08-14T16:28:25.692Z,2.20
2023-08-14T16:30:54.911Z,1.80
2023-08-14T16:33:23.575Z,2.00
2023-08-14T16:35:52.070Z,1.90
2023-08-14T16:38:20.154Z,2.50
2023-08-14T16:40:48.671Z,1.90
2023-08-14T16:43:17.096Z,1.70
2023-08-14T16:45:50.020Z,2.10
2023-08-14T16:48:18.118Z,2.30
2023-08-14T16:50:46.985Z,3.50
2023-08-14T16:53:15.727Z,2.50
2023-08-14T16:55:44.739Z,2.70
2023-08-14T16:58:12.892Z,2.70
2023-08-14T17:00:40.904Z,2.60
2023-08-14T17:03:09.192Z,3.30
2023-08-14T17:05:37.405Z,3.10
2023-08-14T17:08:06.814Z,3.00
2023-08-14T17:10:36.050Z,3.00
2023-08-14T17:13:05.096Z,3.20
2023-08-14T17:15:43.163Z,4.00
2023-08-14T17:18:11.577Z,4.50
2023-08-14T17:20:46.549Z,3.30
2023-08-14T17:23:17.106Z,3.80
2023-08-14T17:25:52.786Z,2.90
2023-08-14T17:28:24.504Z,3.70
2023-08-14T17:30:54.858Z,3.30
2023-08-14T17:33:24.105Z,3.00
2023-08-14T17:35:53.073Z,3.40
2023-08-14T17:38:21.680Z,3.40
2023-08-14T17:40:51.881Z,3.40
2023-08-14T17:43:20.638Z,3.20
2023-08-14T17:45:50.587Z,3.90
2023-08-14T17:48:20.256Z,3.30
2023-08-14T17:50:52.408Z,3.60
2023-08-14T17:53:21.332Z,3.70
2023-08-14T17:55:49.690Z,3.50
2023-08-14T17:58:18.060Z,3.00
2023-08-14T18:00:51.358Z,3.30
2023-08-14T18:03:20.270Z,3.30
2023-08-14T18:05:50.414Z,4.30
2023-08-14T18:08:19.118Z,3.20
2023-08-14T18:10:47.393Z,3.00
2023-08-14T18:13:15.554Z,3.40
2023-08-14T18:15:43.997Z,3.30
2023-08-14T18:18:12.297Z,3.50
2023-08-14T18:20:40.554Z,3.10
2023-08-14T18:23:09.203Z,3.80
2023-08-14T18:25:37.582Z,3.20
2023-08-14T18:28:05.744Z,3.10
2023-08-14T18:30:34.030Z,4.00
2023-08-14T18:33:02.577Z,3.70
2023-08-14T18:35:30.709Z,3.90
2023-08-14T18:38:00.599Z,3.50
2023-08-14T18:40:29.123Z,4.00
2023-08-14T18:42:57.236Z,3.90
2023-08-14T18:45:26.313Z,4.20
2023-08-14T18:47:54.846Z,5.20
2023-08-14T18:50:23.860Z,5.20
2023-08-14T18:52:54.446Z,8.50
2023-08-14T18:55:23.358Z,6.60
2023-08-14T18:57:51.570Z,6.20
2023-08-14T19:00:19.730Z,6.00
2023-08-14T19:02:47.929Z,11.50
2023-08-14T19:05:16.374Z,7.10
2023-08-14T19:07:44.694Z,7.10
2023-08-14T19:10:13.253Z,8.20
2023-08-14T19:12:41.639Z,7.80
2023-08-14T19:15:10.069Z,7.70
2023-08-14T19:17:38.494Z,7.70
2023-08-14T19:20:07.550Z,6.70
2023-08-14T19:22:35.880Z,8.40
2023-08-14T19:25:04.738Z,7.20
2023-08-14T19:27:32.970Z,8.00
2023-08-14T19:30:01.418Z,7.10
2023-08-14T19:32:29.812Z,7.60
2023-08-14T19:34:58.954Z,7.70
2023-08-14T19:37:27.272Z,6.60
2023-08-14T19:39:55.349Z,7.40
2023-08-14T19:42:23.653Z,7.20
2023-08-14T19:44:51.986Z,6.70
2023-08-14T19:47:20.526Z,5.70
2023-08-14T19:49:49.878Z,6.00
2023-08-14T19:52:18.406Z,6.40
2023-08-14T19:54:46.609Z,5.60
2023-08-14T19:57:14.908Z,6.20
2023-08-14T19:59:43.387Z,5.40
2023-08-14T20:02:11.545Z,5.40
2023-08-14T20:04:40.149Z,5.70
2023-08-14T20:07:08.319Z,5.40
2023-08-14T20:09:40.526Z,5.70
2023-08-14T20:12:09.362Z,5.20
2023-08-14T20:14:39.868Z,4.60
2023-08-14T20:17:08.294Z,4.70
2023-08-14T20:19:36.487Z,4.50
2023-08-14T20:22:05.071Z,4.30
2023-08-14T20:24:33.191Z,3.70
2023-08-14T20:27:01.932Z,4.30
2023-08-14T20:29:30.166Z,3.90
2023-08-14T20:31:58.351Z,4.20
2023-08-14T20:34:28.286Z,3.70
2023-08-14T20:36:56.369Z,4.20
2023-08-14T20:39:24.459Z,3.80
2023-08-14T20:41:52.615Z,3.80
2023-08-14T20:44:20.808Z,4.10
2023-08-14T20:46:49.840Z,4.30
2023-08-14T20:49:18.183Z,3.50
2023-08-14T20:51:47.043Z,4.20
2023-08-14T20:54:15.502Z,4.20
2023-08-14T20:56:44.160Z,3.60
2023-08-14T20:59:12.365Z,4.10
2023-08-14T21:01:41.299Z,3.70
2023-08-14T21:04:09.637Z,4.30
2023-08-14T21:06:37.672Z,4.10
2023-08-14T21:09:06.733Z,3.90
2023-08-14T21:11:34.843Z,4.20
2023-08-14T21:14:03.619Z,4.10
2023-08-14T21:16:32.053Z,3.60
2023-08-14T21:19:00.287Z,3.80
2023-08-14T21:21:28.714Z,3.90
2023-08-14T21:23:56.883Z,3.40
2023-08-14T21:26:25.258Z,4.00
2023-08-14T21:28:53.597Z,4.10
2023-08-14T21:31:22.032Z,3.60
2023-08-14T21:33:50.828Z,3.50
2023-08-14T21:36:19.199Z,3.70
2023-08-14T21:38:47.514Z,3.40
2023-08-14T21:41:15.577Z,5.00
2023-08-14T21:43:44.049Z,5.10
2023-08-14T21:46:12.734Z,4.10
2023-08-14T21:48:41.302Z,3.90
2023-08-14T21:51:11.425Z,3.70
2023-08-14T21:53:39.655Z,4.10
2023-08-14T21:56:08.308Z,3.60
2023-08-14T21:58:36.370Z,3.70
2023-08-14T22:01:04.687Z,4.10
2023-08-14T22:03:32.957Z,3.70
2023-08-14T22:06:04.977Z,4.80
2023-08-14T22:08:33.384Z,4.30
2023-08-14T22:11:02.547Z,3.50
2023-08-14T22:13:31.075Z,3.90
2023-08-14T22:15:59.319Z,4.00
2023-08-14T22:18:27.431Z,4.00
2023-08-14T22:20:56.133Z,4.30
2023-08-14T22:23:24.385Z,3.80
2023-08-14T22:25:52.773Z,4.20
2023-08-14T22:28:21.193Z,4.10
2023-08-14T22:30:49.601Z,4.20
2023-08-14T22:33:18.064Z,4.10
2023-08-14T22:35:59.095Z,3.90
2023-08-14T22:38:27.148Z,4.30
2023-08-14T22:40:55.310Z,4.10
2023-08-14T22:43:23.768Z,5.30
2023-08-14T22:45:51.840Z,4.00
2023-08-14T22:48:20.855Z,4.50
2023-08-14T22:50:49.527Z,4.00
2023-08-14T22:53:19.089Z,4.00
2023-08-14T22:55:50.334Z,4.50
2023-08-14T22:58:19.393Z,4.60
2023-08-14T23:00:47.422Z,4.70
2023-08-14T23:03:15.490Z,3.90
2023-08-14T23:05:43.825Z,3.70
2023-08-14T23:08:12.124Z,3.70
2023-08-14T23:10:40.448Z,4.00
2023-08-14T23:13:08.995Z,3.60
2023-08-14T23:15:37.391Z,3.60
2023-08-14T23:18:05.965Z,3.50
2023-08-14T23:20:38.885Z,3.50
2023-08-14T23:23:08.413Z,4.10
2023-08-14T23:25:36.694Z,3.80
2023-08-14T23:28:05.883Z,3.30
2023-08-14T23:30:37.843Z,3.90
2023-08-14T23:33:07.125Z,4.20
2023-08-14T23:35:35.612Z,4.30
2023-08-14T23:38:04.768Z,3.50
2023-08-14T23:40:33.470Z,3.60
2023-08-14T23:43:02.259Z,3.80
2023-08-14T23:45:31.699Z,3.60
2023-08-14T23:48:00.302Z,3.10
2023-08-14T23:50:29.176Z,4.20
2023-08-14T23:52:57.487Z,3.30
2023-08-14T23:55:25.839Z,3.80
2023-08-14T23:57:55.256Z,3.30
